createdAt,value
2018-06-30T00:02:25.525Z,100331.75
2018-06-30T00:04:54.150Z,100333.55
2018-06-30T00:07:23.517Z,100335.63
2018-06-30T00:09:51.862Z,100336.31
2018-06-30T00:12:20.336Z,100340.66
2018-06-30T00:14:48.724Z,100340.88
2018-06-30T00:17:17.102Z,100344.64
2018-06-30T00:19:45.671Z,100349.97
2018-06-30T00:22:14.122Z,100350.02
2018-06-30T00:24:42.594Z,100351.33
2018-06-30T00:27:16.107Z,100352.51
2018-06-30T00:29:44.466Z,100347.95
2018-06-30T00:32:12.856Z,100352.20
2018-06-30T00:34:41.244Z,100347.86
2018-06-30T00:37:09.674Z,100345.61
2018-06-30T00:39:38.264Z,100353.28
2018-06-30T00:42:06.600Z,100354.91
2018-06-30T00:44:34.968Z,100356.44
2018-06-30T00:47:03.970Z,100358.50
2018-06-30T00:49:32.360Z,100365.92
2018-06-30T00:52:00.960Z,100367.76
2018-06-30T00:54:29.501Z,100363.06
2018-06-30T00:56:57.894Z,100374.07
2018-06-30T00:59:26.193Z,100374.78
2018-06-30T01:01:54.660Z,100379.00
2018-06-30T01:04:23.157Z,100371.72
2018-06-30T01:06:51.534Z,100376.78
2018-06-30T01:09:19.833Z,100373.33
2018-06-30T01:11:48.399Z,100370.30
2018-06-30T01:14:17.011Z,100376.31
2018-06-30T01:16:45.572Z,100375.44
2018-06-30T01:19:14.848Z,100382.42
2018-06-30T01:21:43.244Z,100376.21
2018-06-30T01:24:11.618Z,100382.31
2018-06-30T01:26:39.965Z,100385.39
2018-06-30T01:29:08.390Z,100391.38
2018-06-30T01:31:36.819Z,100390.06
2018-06-30T01:34:05.301Z,100388.83
2018-06-30T01:36:33.630Z,100384.00
2018-06-30T01:39:01.962Z,100392.94
2018-06-30T01:41:30.396Z,100387.54
2018-06-30T01:43:58.718Z,100394.30
2018-06-30T01:46:27.057Z,100389.14
2018-06-30T01:48:55.658Z,100390.63
2018-06-30T01:51:24.032Z,100390.74
2018-06-30T01:53:52.371Z,100392.32
2018-06-30T01:56:20.760Z,100393.68
2018-06-30T01:58:49.070Z,100393.03
2018-06-30T02:01:22.586Z,100390.53
2018-06-30T02:03:50.974Z,100397.97
2018-06-30T02:06:19.352Z,100391.57
2018-06-30T02:08:47.777Z,100389.06
2018-06-30T02:11:16.208Z,100390.66
2018-06-30T02:13:44.532Z,100397.52
2018-06-30T02:16:12.984Z,100398.44
2018-06-30T02:18:41.328Z,100400.58
2018-06-30T02:21:09.700Z,100402.72
2018-06-30T02:23:37.985Z,100411.70
2018-06-30T02:26:06.354Z,100405.30
2018-06-30T02:28:34.858Z,100412.05
2018-06-30T02:31:03.191Z,100405.29
2018-06-30T02:33:31.491Z,100410.34
2018-06-30T02:35:59.919Z,100410.35
2018-06-30T02:38:28.272Z,100414.06
2018-06-30T02:40:56.730Z,100410.70
2018-06-30T02:43:25.096Z,100409.23
2018-06-30T02:45:53.928Z,100414.73
2018-06-30T02:48:22.252Z,100414.40
2018-06-30T02:50:50.723Z,100414.39
2018-06-30T02:53:19.168Z,100421.72
2018-06-30T02:55:47.546Z,100418.23
2018-06-30T02:58:15.915Z,100425.62
2018-06-30T03:00:44.340Z,100429.42
2018-06-30T03:03:12.644Z,100427.34
2018-06-30T03:05:41.061Z,100425.97
2018-06-30T03:08:09.458Z,100429.34
2018-06-30T03:10:37.838Z,100425.41
2018-06-30T03:13:07.226Z,100428.67
2018-06-30T03:15:35.624Z,100435.41
2018-06-30T03:18:03.980Z,100433.84
2018-06-30T03:20:32.394Z,100438.28
2018-06-30T03:23:05.992Z,100446.30
2018-06-30T03:25:34.310Z,100445.40
2018-06-30T03:28:02.608Z,100447.02
2018-06-30T03:30:31.942Z,100451.63
2018-06-30T03:33:00.402Z,100455.23
2018-06-30T03:35:28.768Z,100461.13
2018-06-30T03:37:57.674Z,100456.98
2018-06-30T03:40:26.057Z,100458.87
2018-06-30T03:42:54.548Z,100464.92
2018-06-30T03:45:22.930Z,100466.72
2018-06-30T03:47:51.448Z,100470.55
2018-06-30T03:50:19.805Z,100469.91
2018-06-30T03:52:48.190Z,100475.84
2018-06-30T03:55:16.664Z,100478.43
2018-06-30T03:57:45.050Z,100486.27
2018-06-30T04:00:13.378Z,100480.98
2018-06-30T04:02:41.798Z,100486.91
2018-06-30T04:05:10.160Z,100476.77
2018-06-30T04:07:38.616Z,100484.61
2018-06-30T04:10:07.092Z,100485.42
2018-06-30T04:12:35.444Z,100491.56
2018-06-30T04:15:03.796Z,100492.84
2018-06-30T04:17:32.342Z,100500.02
2018-06-30T04:20:00.696Z,100496.78
2018-06-30T04:22:29.032Z,100506.84
2018-06-30T04:24:57.476Z,100502.33
2018-06-30T04:27:26.445Z,100502.75
2018-06-30T04:29:55.523Z,100500.69
2018-06-30T04:32:24.128Z,100508.97
2018-06-30T04:34:52.890Z,100504.81
2018-06-30T04:37:21.260Z,100508.37
2018-06-30T04:39:49.609Z,100516.91
2018-06-30T04:42:31.742Z,100519.44
2018-06-30T04:45:00.662Z,100519.55
2018-06-30T04:47:30.781Z,100527.77
2018-06-30T04:49:59.511Z,100524.98
2018-06-30T04:52:28.968Z,100522.81
2018-06-30T04:54:57.560Z,100530.23
2018-06-30T04:57:26.346Z,100524.39
2018-06-30T04:59:56.241Z,100530.95
2018-06-30T05:02:24.831Z,100535.09
2018-06-30T05:04:53.557Z,100533.58
2018-06-30T05:07:22.031Z,100535.06
2018-06-30T05:09:50.657Z,100529.12
2018-06-30T05:12:19.154Z,100536.32
2018-06-30T05:14:48.386Z,100536.69
2018-06-30T05:17:16.938Z,100537.38
2018-06-30T05:19:45.540Z,100539.22
2018-06-30T05:22:14.323Z,100545.56
2018-06-30T05:24:42.781Z,100541.23
2018-06-30T05:27:11.269Z,100546.91
2018-06-30T05:29:39.679Z,100548.43
2018-06-30T05:32:08.161Z,100554.33
2018-06-30T05:34:36.916Z,100552.56
2018-06-30T05:37:06.268Z,100556.86
2018-06-30T05:39:35.351Z,100558.63
2018-06-30T05:44:56.635Z,100552.77
2018-06-30T05:47:25.069Z,100559.22
2018-06-30T05:49:53.592Z,100560.95
2018-06-30T05:52:22.128Z,100561.60
2018-06-30T05:54:50.644Z,100558.75
2018-06-30T05:57:19.398Z,100559.97
2018-06-30T05:59:48.181Z,100564.77
2018-06-30T06:02:16.703Z,100565.97
2018-06-30T06:04:45.191Z,100559.75
2018-06-30T06:07:13.751Z,100566.91
2018-06-30T06:09:42.634Z,100567.45
2018-06-30T06:12:11.885Z,100562.21
2018-06-30T06:14:40.739Z,100570.78
2018-06-30T06:17:09.468Z,100575.83
2018-06-30T06:19:37.813Z,100571.34
2018-06-30T06:22:06.663Z,100576.22
2018-06-30T06:24:35.538Z,100570.92
2018-06-30T06:27:04.248Z,100569.58
2018-06-30T06:29:32.946Z,100564.05
2018-06-30T06:32:01.532Z,100572.39
2018-06-30T06:34:30.390Z,100569.88
2018-06-30T06:36:58.800Z,100579.22
2018-06-30T06:39:27.165Z,100578.84
2018-06-30T06:41:57.454Z,100580.52
2018-06-30T06:44:25.990Z,100572.39
2018-06-30T06:46:54.487Z,100581.91
2018-06-30T06:49:22.987Z,100580.61
2018-06-30T06:51:51.573Z,100575.80
2018-06-30T06:54:20.253Z,100575.03
2018-06-30T06:56:50.235Z,100576.33
2018-06-30T06:59:18.790Z,100573.40
2018-06-30T07:01:47.456Z,100573.69
2018-06-30T07:04:15.828Z,100579.59
2018-06-30T07:06:44.394Z,100564.88
2018-06-30T07:09:13.247Z,100566.45
2018-06-30T07:11:41.987Z,100560.77
2018-06-30T07:14:11.100Z,100560.80
2018-06-30T07:16:39.594Z,100570.33
2018-06-30T07:19:08.124Z,100562.34
2018-06-30T07:21:46.380Z,100576.97
2018-06-30T07:24:16.027Z,100574.44
2018-06-30T07:26:45.674Z,100568.04
2018-06-30T07:29:15.324Z,100573.77
2018-06-30T07:31:45.144Z,100563.69
2018-06-30T07:34:20.176Z,100566.98
2018-06-30T07:36:53.166Z,100559.17
2018-06-30T07:39:22.168Z,100564.92
2018-06-30T07:41:53.592Z,100567.53
2018-06-30T07:44:24.395Z,100570.02
2018-06-30T07:46:53.757Z,100575.74
2018-06-30T07:49:23.766Z,100568.56
2018-06-30T07:52:00.102Z,100575.44
2018-06-30T07:54:29.392Z,100575.42
2018-06-30T07:57:01.170Z,100576.59
2018-06-30T07:59:31.001Z,100587.86
2018-06-30T08:02:13.191Z,100577.48
2018-06-30T08:04:42.502Z,100586.94
2018-06-30T08:07:13.914Z,100584.72
2018-06-30T08:09:45.317Z,100590.33
2018-06-30T08:15:10.548Z,100591.92
2018-06-30T08:17:40.356Z,100588.08
2018-06-30T08:20:12.684Z,100599.11
2018-06-30T08:34:28.972Z,100596.42
2018-06-30T08:37:02.127Z,100602.83
2018-06-30T08:39:31.796Z,100597.19
2018-06-30T08:42:14.952Z,100600.12
2018-06-30T08:44:48.896Z,100618.25
2018-06-30T08:47:19.854Z,100598.45
2018-06-30T08:49:57.675Z,100608.89
2018-06-30T08:52:31.860Z,100604.08
2018-06-30T08:55:10.357Z,100604.30
2018-06-30T08:57:47.853Z,100601.71
2018-06-30T09:00:17.882Z,100589.20
2018-06-30T09:02:49.314Z,100594.04
2018-06-30T09:05:18.881Z,100601.02
2018-06-30T09:07:52.068Z,100600.13
2018-06-30T09:10:25.016Z,100600.02
2018-06-30T09:12:53.960Z,100599.22
2018-06-30T09:15:22.492Z,100593.46
2018-06-30T09:17:51.044Z,100595.16
2018-06-30T09:20:20.500Z,100596.73
2018-06-30T09:22:49.945Z,100600.86
2018-06-30T09:25:18.574Z,100601.97
2018-06-30T09:27:47.062Z,100599.95
2018-06-30T09:30:15.448Z,100599.72
2018-06-30T09:32:44.340Z,100604.00
2018-06-30T09:35:14.968Z,100598.79
2018-06-30T09:37:43.480Z,100615.78
2018-06-30T09:40:12.070Z,100607.76
2018-06-30T09:42:40.695Z,100604.80
2018-06-30T09:45:09.222Z,100611.91
2018-06-30T09:47:37.943Z,100609.95
2018-06-30T09:50:06.730Z,100615.55
2018-06-30T09:52:35.347Z,100613.85
2018-06-30T09:55:04.106Z,100611.90
2018-06-30T09:57:33.088Z,100617.16
2018-06-30T10:00:01.572Z,100616.26
2018-06-30T10:02:30.279Z,100613.78
2018-06-30T10:04:59.329Z,100616.43
2018-06-30T10:07:27.987Z,100621.02
2018-06-30T10:09:56.777Z,100625.34
2018-06-30T10:12:25.603Z,100627.11
2018-06-30T10:14:54.121Z,100619.44
2018-06-30T10:17:22.523Z,100617.69
2018-06-30T10:19:51.427Z,100629.14
2018-06-30T10:22:20.249Z,100626.65
2018-06-30T10:24:49.470Z,100617.43
2018-06-30T10:27:17.989Z,100623.30
2018-06-30T10:29:46.743Z,100616.58
2018-06-30T10:32:25.497Z,100610.94
2018-06-30T10:34:53.969Z,100598.56
2018-06-30T10:37:22.583Z,100619.45
2018-06-30T10:39:51.907Z,100613.84
2018-06-30T10:42:21.567Z,100611.77
2018-06-30T10:44:50.387Z,100612.70
2018-06-30T10:47:19.237Z,100596.03
2018-06-30T10:49:49.015Z,100597.56
2018-06-30T10:52:17.532Z,100600.16
2018-06-30T10:54:46.036Z,100598.38
2018-06-30T10:57:15.666Z,100594.67
2018-06-30T10:59:44.630Z,100596.11
2018-06-30T11:02:13.764Z,100583.39
2018-06-30T11:04:44.023Z,100582.83
2018-06-30T11:07:12.904Z,100578.25
2018-06-30T11:09:42.682Z,100582.01
2018-06-30T11:12:29.764Z,100582.81
2018-06-30T11:14:59.091Z,100583.30
2018-06-30T11:17:28.603Z,100565.64
2018-06-30T11:19:57.700Z,100568.98
2018-06-30T11:22:27.308Z,100556.62
2018-06-30T11:24:56.298Z,100562.18
2018-06-30T11:27:26.074Z,100560.57
2018-06-30T11:29:54.880Z,100553.78
2018-06-30T11:32:24.139Z,100556.34
2018-06-30T11:34:53.098Z,100560.42
2018-06-30T11:37:22.446Z,100557.80
2018-06-30T11:39:51.032Z,100550.61
2018-06-30T11:42:19.450Z,100552.13
2018-06-30T11:44:48.059Z,100541.25
2018-06-30T11:47:17.717Z,100553.08
2018-06-30T11:49:46.731Z,100543.38
2018-06-30T11:52:15.189Z,100548.18
2018-06-30T11:54:43.680Z,100550.74
2018-06-30T11:57:12.137Z,100544.73
2018-06-30T11:59:40.771Z,100558.30
2018-06-30T12:02:09.691Z,100550.37
2018-06-30T12:04:38.183Z,100536.68
2018-06-30T12:07:07.435Z,100537.27
2018-06-30T12:09:35.773Z,100547.78
2018-06-30T12:12:04.297Z,100531.93
2018-06-30T12:14:32.751Z,100544.43
2018-06-30T12:17:01.812Z,100548.89
2018-06-30T12:19:31.591Z,100545.30
2018-06-30T12:22:01.245Z,100541.22
2018-06-30T12:24:30.095Z,100533.86
2018-06-30T12:26:58.620Z,100540.26
2018-06-30T12:29:27.159Z,100546.51
2018-06-30T12:31:55.682Z,100549.52
2018-06-30T12:34:24.101Z,100534.78
2018-06-30T12:36:52.594Z,100536.34
2018-06-30T12:39:21.038Z,100542.60
2018-06-30T12:41:49.529Z,100539.98
2018-06-30T12:44:18.004Z,100550.27
2018-06-30T12:46:46.580Z,100544.88
2018-06-30T12:49:15.154Z,100537.12
2018-06-30T12:51:43.750Z,100536.91
2018-06-30T12:54:12.407Z,100533.62
2018-06-30T12:56:40.652Z,100534.69
2018-06-30T12:59:09.264Z,100529.32
2018-06-30T13:01:37.790Z,100525.62
2018-06-30T13:04:06.259Z,100528.34
2018-06-30T13:06:35.117Z,100539.91
2018-06-30T13:09:04.672Z,100526.52
2018-06-30T13:11:33.456Z,100530.89
2018-06-30T13:14:01.904Z,100537.66
2018-06-30T13:16:30.326Z,100532.55
2018-06-30T13:18:59.093Z,100528.70
2018-06-30T13:21:27.643Z,100522.45
2018-06-30T13:23:56.099Z,100530.12
2018-06-30T13:26:24.638Z,100517.82
2018-06-30T13:28:53.279Z,100515.27
2018-06-30T13:31:21.709Z,100522.35
2018-06-30T13:33:50.172Z,100508.01
2018-06-30T13:36:18.622Z,100526.05
2018-06-30T13:38:47.084Z,100535.78
2018-06-30T13:41:15.644Z,100528.34
2018-06-30T13:43:44.125Z,100518.03
2018-06-30T13:46:12.864Z,100505.59
2018-06-30T13:48:41.310Z,100500.80
2018-06-30T13:51:09.943Z,100503.91
2018-06-30T13:53:38.383Z,100513.98
2018-06-30T13:56:07.336Z,100515.12
2018-06-30T13:58:35.839Z,100517.09
2018-06-30T14:01:04.379Z,100510.66
2018-06-30T14:03:32.789Z,100520.42
2018-06-30T14:06:01.266Z,100516.30
2018-06-30T14:08:29.679Z,100524.13
2018-06-30T14:10:59.081Z,100509.77
2018-06-30T14:13:28.449Z,100500.21
2018-06-30T14:15:56.945Z,100507.05
2018-06-30T14:18:26.737Z,100518.16
2018-06-30T14:20:55.419Z,100514.23
2018-06-30T14:23:25.313Z,100514.41
2018-06-30T14:25:54.640Z,100513.84
2018-06-30T14:28:24.047Z,100503.68
2018-06-30T14:30:52.662Z,100501.47
2018-06-30T14:33:26.621Z,100500.81
2018-06-30T14:35:55.571Z,100505.95
2018-06-30T14:38:24.226Z,100504.59
2018-06-30T14:40:53.178Z,100488.77
2018-06-30T14:43:21.756Z,100484.73
2018-06-30T14:45:50.090Z,100486.30
2018-06-30T14:48:18.794Z,100496.09
2018-06-30T14:50:47.449Z,100484.20
2018-06-30T14:53:16.040Z,100488.09
2018-06-30T14:55:44.516Z,100480.72
2018-06-30T14:58:12.932Z,100487.63
2018-06-30T15:00:41.458Z,100483.27
2018-06-30T15:03:10.255Z,100485.81
2018-06-30T15:05:38.838Z,100493.30
2018-06-30T15:08:07.609Z,100493.94
2018-06-30T15:10:36.209Z,100486.25
2018-06-30T15:13:05.092Z,100493.35
2018-06-30T15:15:33.576Z,100476.72
2018-06-30T15:18:02.069Z,100484.28
2018-06-30T15:20:30.551Z,100488.80
2018-06-30T15:22:59.218Z,100488.77
2018-06-30T15:25:27.761Z,100499.16
2018-06-30T15:27:56.544Z,100492.89
2018-06-30T15:30:26.317Z,100487.98
2018-06-30T15:32:55.290Z,100489.42
2018-06-30T15:35:24.079Z,100488.28
2018-06-30T15:37:52.535Z,100489.44
2018-06-30T15:40:20.962Z,100488.53
2018-06-30T15:42:49.759Z,100494.06
2018-06-30T15:45:20.660Z,100493.84
2018-06-30T15:47:50.232Z,100494.98
2018-06-30T15:50:18.945Z,100485.23
2018-06-30T15:52:47.704Z,100498.70
2018-06-30T15:55:16.419Z,100494.74
2018-06-30T15:57:46.352Z,100488.66
2018-06-30T16:00:15.371Z,100493.20
2018-06-30T16:02:45.407Z,100486.53
2018-06-30T16:05:15.041Z,100495.92
2018-06-30T16:07:50.133Z,100492.30
2018-06-30T16:10:19.809Z,100493.44
2018-06-30T16:12:48.352Z,100487.16
2018-06-30T16:15:18.421Z,100490.68
2018-06-30T16:17:47.008Z,100482.31
2018-06-30T16:20:15.504Z,100492.74
2018-06-30T16:22:44.028Z,100487.13
2018-06-30T16:25:12.502Z,100480.95
2018-06-30T16:27:41.135Z,100494.17
2018-06-30T16:30:09.968Z,100486.83
2018-06-30T16:32:38.753Z,100484.14
2018-06-30T16:35:08.323Z,100489.39
2018-06-30T16:37:38.185Z,100475.61
2018-06-30T16:40:07.889Z,100479.04
2018-06-30T16:42:36.827Z,100481.14
2018-06-30T16:45:06.645Z,100485.77
2018-06-30T16:47:35.419Z,100478.58
2018-06-30T16:50:04.171Z,100477.95
2018-06-30T16:52:32.557Z,100476.30
2018-06-30T16:55:01.145Z,100475.86
2018-06-30T16:57:29.821Z,100474.87
2018-06-30T16:59:58.515Z,100474.94
2018-06-30T17:02:27.039Z,100468.05
2018-06-30T17:04:55.580Z,100461.34
2018-06-30T17:07:24.002Z,100466.98
2018-06-30T17:09:52.445Z,100477.22
2018-06-30T17:12:21.043Z,100485.25
2018-06-30T17:14:49.547Z,100472.12
2018-06-30T17:17:18.077Z,100476.04
2018-06-30T17:19:46.877Z,100484.03
2018-06-30T17:22:15.859Z,100475.05
2018-06-30T17:24:44.291Z,100485.69
2018-06-30T17:27:12.876Z,100480.77
2018-06-30T17:29:41.400Z,100481.91
2018-06-30T17:32:09.939Z,100487.48
2018-06-30T17:34:38.771Z,100485.42
2018-06-30T17:37:07.437Z,100483.52
2018-06-30T17:39:36.135Z,100477.87
2018-06-30T17:42:04.977Z,100489.45
2018-06-30T17:44:33.669Z,100481.50
2018-06-30T17:47:07.203Z,100486.27
2018-06-30T17:49:35.936Z,100489.62
2018-06-30T17:52:06.395Z,100489.00
2018-06-30T17:54:35.291Z,100484.85
2018-06-30T17:57:05.585Z,100484.85
2018-06-30T17:59:38.963Z,100499.83
2018-06-30T18:02:08.165Z,100494.36
2018-06-30T18:04:37.091Z,100490.77
2018-06-30T18:07:05.855Z,100496.83
2018-06-30T18:09:35.349Z,100495.13
2018-06-30T18:12:03.811Z,100493.63
2018-06-30T18:14:32.489Z,100492.86
2018-06-30T18:17:03.150Z,100495.83
2018-06-30T18:19:31.769Z,100497.23
2018-06-30T18:22:00.635Z,100501.66
2018-06-30T18:24:29.165Z,100497.93
2018-06-30T18:26:57.984Z,100499.94
2018-06-30T18:29:27.658Z,100500.30
2018-06-30T18:31:56.354Z,100503.31
2018-06-30T18:34:24.994Z,100504.70
2018-06-30T18:36:53.795Z,100498.47
2018-06-30T18:39:22.798Z,100504.63
2018-06-30T18:41:53.419Z,100512.05
2018-06-30T18:44:22.105Z,100498.55
2018-06-30T18:46:51.885Z,100512.74
2018-06-30T18:49:21.743Z,100513.69
2018-06-30T18:51:50.473Z,100508.05
2018-06-30T18:54:19.474Z,100513.91
2018-06-30T18:56:48.005Z,100510.27
2018-06-30T18:59:18.766Z,100521.31
2018-06-30T19:01:48.182Z,100524.93
2018-06-30T19:04:16.887Z,100526.95
2018-06-30T19:06:46.908Z,100526.01
2018-06-30T19:09:15.741Z,100529.88
2018-06-30T19:11:44.405Z,100529.36
2018-06-30T19:14:13.419Z,100531.98
2018-06-30T19:16:42.326Z,100535.33
2018-06-30T19:19:11.053Z,100534.03
2018-06-30T19:21:40.443Z,100537.15
2018-06-30T19:24:10.452Z,100537.36
2018-06-30T19:26:39.691Z,100541.89
2018-06-30T19:29:08.278Z,100539.73
2018-06-30T19:31:37.214Z,100546.95
2018-06-30T19:34:05.901Z,100547.36
2018-06-30T19:36:34.860Z,100550.05
2018-06-30T19:39:03.867Z,100552.55
2018-06-30T19:41:32.539Z,100555.39
2018-06-30T19:44:02.113Z,100555.30
2018-06-30T19:46:31.055Z,100555.44
2018-06-30T19:49:00.260Z,100554.77
2018-06-30T19:51:29.051Z,100554.78
2018-06-30T19:53:58.773Z,100560.33
2018-06-30T19:56:27.376Z,100557.84
2018-06-30T19:58:57.485Z,100561.06
2018-06-30T20:01:31.945Z,100565.69
2018-06-30T20:04:03.189Z,100575.66
2018-06-30T20:06:32.450Z,100572.25
2018-06-30T20:09:01.043Z,100571.78
2018-06-30T20:11:29.656Z,100573.00
2018-06-30T20:13:58.736Z,100582.09
2018-06-30T20:16:27.561Z,100572.63
2018-06-30T20:18:58.752Z,100575.55
2018-06-30T20:24:43.293Z,100578.94
2018-06-30T20:27:12.551Z,100575.50
2018-06-30T20:29:41.034Z,100581.80
2018-06-30T20:32:09.794Z,100583.25
2018-06-30T20:34:40.124Z,100584.91
2018-06-30T20:37:09.079Z,100583.80
2018-06-30T20:39:38.023Z,100583.00
2018-06-30T20:42:07.759Z,100589.80
2018-06-30T20:44:37.227Z,100585.31
2018-06-30T20:47:14.233Z,100594.77
2018-06-30T20:49:44.686Z,100594.53
2018-06-30T20:52:15.501Z,100595.33
2018-06-30T20:54:44.275Z,100600.86
2018-06-30T20:57:12.953Z,100598.50
2018-06-30T20:59:41.909Z,100597.27
2018-06-30T21:02:11.411Z,100603.72
2018-06-30T21:04:42.169Z,100604.38
2018-06-30T21:07:11.653Z,100613.25
2018-06-30T21:09:44.243Z,100609.20
2018-06-30T21:12:12.961Z,100612.95
2018-06-30T21:14:41.808Z,100614.39
2018-06-30T21:17:10.533Z,100612.38
2018-06-30T21:19:39.645Z,100614.97
2018-06-30T21:22:08.079Z,100614.30
2018-06-30T21:24:36.507Z,100613.04
2018-06-30T21:27:05.239Z,100615.66
2018-06-30T21:29:34.167Z,100610.59
2018-06-30T21:32:02.859Z,100615.97
2018-06-30T21:34:34.003Z,100618.67
2018-06-30T21:37:02.775Z,100628.05
2018-06-30T21:39:31.657Z,100624.77
2018-06-30T21:42:10.136Z,100619.36
2018-06-30T21:44:39.648Z,100621.29
2018-06-30T21:47:08.212Z,100625.00
2018-06-30T21:49:36.705Z,100622.53
2018-06-30T21:52:05.131Z,100623.77
2018-06-30T21:54:33.631Z,100624.00
2018-06-30T21:57:02.417Z,100619.95
2018-06-30T21:59:31.705Z,100621.73
2018-06-30T22:02:00.265Z,100622.20
2018-06-30T22:04:28.645Z,100621.28
2018-06-30T22:06:57.269Z,100624.55
2018-06-30T22:09:25.969Z,100628.28
2018-06-30T22:11:54.397Z,100633.30
2018-06-30T22:14:24.872Z,100632.64
2018-06-30T22:16:53.303Z,100629.03
2018-06-30T22:19:24.194Z,100637.37
2018-06-30T22:21:53.007Z,100630.17
2018-06-30T22:24:21.766Z,100633.65
2018-06-30T22:26:50.213Z,100638.25
2018-06-30T22:29:18.615Z,100640.28
2018-06-30T22:32:00.763Z,100641.84
2018-06-30T22:34:29.229Z,100644.11
2018-06-30T22:36:57.615Z,100638.23
2018-06-30T22:39:37.775Z,100651.06
2018-06-30T22:42:06.429Z,100646.97
2018-06-30T22:44:34.900Z,100652.45
2018-06-30T22:47:03.983Z,100648.41
2018-06-30T22:49:34.660Z,100652.77
2018-06-30T22:52:13.004Z,100656.48
2018-06-30T22:54:41.657Z,100656.22
2018-06-30T22:57:10.315Z,100660.03
2018-06-30T22:59:39.719Z,100659.25
2018-06-30T23:02:08.398Z,100658.31
2018-06-30T23:04:36.957Z,100659.32
2018-06-30T23:07:07.411Z,100662.66
2018-06-30T23:09:35.740Z,100659.42
2018-06-30T23:15:20.187Z,100675.53
2018-06-30T23:17:48.690Z,100674.28
2018-06-30T23:20:17.303Z,100683.59
2018-06-30T23:22:56.056Z,100683.20
2018-06-30T23:25:26.662Z,100679.39
2018-06-30T23:27:55.801Z,100682.72
2018-06-30T23:30:25.560Z,100680.19
2018-06-30T23:32:55.106Z,100677.58
2018-06-30T23:35:26.574Z,100680.88
2018-06-30T23:37:57.356Z,100682.09
2018-06-30T23:40:26.629Z,100682.17
2018-06-30T23:46:01.386Z,100682.51
2018-06-30T23:48:29.924Z,100683.89
2018-06-30T23:50:59.324Z,100686.86
2018-06-30T23:53:27.946Z,100686.59
2018-06-30T23:55:57.018Z,100683.00
2018-06-30T23:58:25.496Z,100679.05
